Time;durP1;ratioP1;P1;durP2;ratioP2;P2;SDS_P1;SDS_P2;PMS_P1;PMS_P2;Temp;Humidity;BMP_temperature;BMP_pressure;BME280_temperature;BME280_humidity;BME280_pressure;Samples;Min_cycle;Max_cycle;Signal;HPM_P1;HPM_P2
2023/01/12 00:01:21;;;;;;;61.42;5.10;;;;;;;;;;5071753;28;20201;-69
2023/01/12 00:03:48;;;;;;;62.75;4.20;;;;;;;;;;5074852;28;20213;-69
2023/01/12 00:06:18;;;;;;;59.45;4.53;;;;;;;;;;5075693;28;20236;-69
2023/01/12 00:08:45;;;;;;;62.45;4.90;;;;;;;;;;5074795;28;20599;-69
2023/01/12 00:11:13;;;;;;;61.70;5.20;;;;;;;;;;5075863;28;20208;-69
2023/01/12 00:13:41;;;;;;;61.10;4.50;;;;;;;;;;5075783;28;20209;-68
2023/01/12 00:18:58;;;;;;;60.88;4.40;;;;;;;;;;5074793;28;20201;-69
2023/01/12 00:21:26;;;;;;;62.38;4.50;;;;;;;;;;5075640;28;20580;-69
2023/01/12 00:23:53;;;;;;;61.42;4.40;;;;;;;;;;5075742;28;20231;-69
2023/01/12 00:26:21;;;;;;;59.35;3.55;;;;;;;;;;5075292;28;20217;-69
2023/01/12 00:28:48;;;;;;;61.08;4.60;;;;;;;;;;5074572;28;20235;-69
2023/01/12 00:31:15;;;;;;;70.10;4.40;;;;;;;;;;5075194;28;20205;-69
2023/01/12 00:33:42;;;;;;;61.70;3.83;;;;;;;;;;5075189;28;20380;-69
2023/01/12 00:36:12;;;;;;;61.50;3.60;;;;;;;;;;5075368;28;20450;-69
2023/01/12 00:38:39;;;;;;;62.53;3.80;;;;;;;;;;5074237;28;20443;-69
2023/01/12 00:41:06;;;;;;;58.97;3.40;;;;;;;;;;5075190;28;20466;-69
2023/01/12 00:46:19;;;;;;;59.40;3.60;;;;;;;;;;5074983;28;20423;-69
2023/01/12 00:48:46;;;;;;;58.80;3.50;;;;;;;;;;5074039;28;20479;-69
2023/01/12 00:51:13;;;;;;;59.77;4.80;;;;;;;;;;5074968;28;20653;-68
2023/01/12 00:53:41;;;;;;;66.97;4.53;;;;;;;;;;5074995;28;20448;-69
2023/01/12 00:56:08;;;;;;;62.80;3.93;;;;;;;;;;5074850;28;20443;-69
2023/01/12 00:58:36;;;;;;;60.67;3.90;;;;;;;;;;5073955;28;20444;-69
2023/01/12 01:01:06;;;;;;;60.13;3.70;;;;;;;;;;5075116;28;20447;-69
2023/01/12 01:03:34;;;;;;;62.07;4.07;;;;;;;;;;5074730;28;20221;-69
2023/01/12 01:06:04;;;;;;;58.47;3.93;;;;;;;;;;5074511;28;20447;-68
2023/01/12 01:08:32;;;;;;;60.77;3.80;;;;;;;;;;5074045;28;20485;-68
2023/01/12 01:11:02;;;;;;;59.25;3.80;;;;;;;;;;5074418;28;20484;-69
2023/01/12 01:13:29;;;;;;;64.20;3.43;;;;;;;;;;5073787;28;20232;-69
2023/01/12 01:16:00;;;;;;;60.47;4.00;;;;;;;;;;5073885;28;20454;-69
2023/01/12 01:18:28;;;;;;;61.50;4.03;;;;;;;;;;5074372;28;20454;-69
2023/01/12 01:20:55;;;;;;;62.17;3.60;;;;;;;;;;5073969;28;20459;-69
2023/01/12 01:23:23;;;;;;;58.80;3.50;;;;;;;;;;5074293;28;20847;-69
2023/01/12 01:25:51;;;;;;;61.50;3.40;;;;;;;;;;5074063;28;20466;-69
2023/01/12 01:28:18;;;;;;;60.77;3.77;;;;;;;;;;5074010;28;20475;-69
2023/01/12 01:30:45;;;;;;;66.97;5.37;;;;;;;;;;5073697;28;20443;-69
2023/01/12 01:33:14;;;;;;;61.50;3.47;;;;;;;;;;5074147;28;20497;-69
2023/01/12 01:35:41;;;;;;;58.37;2.53;;;;;;;;;;5074030;28;20819;-69
2023/01/12 01:38:08;;;;;;;62.90;4.03;;;;;;;;;;5073840;28;20538;-68
2023/01/12 01:40:35;;;;;;;60.77;3.70;;;;;;;;;;5073253;28;20452;-68
2023/01/12 01:43:03;;;;;;;60.67;3.50;;;;;;;;;;5074025;28;20474;-69
2023/01/12 01:45:30;;;;;;;57.90;2.90;;;;;;;;;;5074020;28;20447;-68
2023/01/12 01:47:58;;;;;;;59.47;3.70;;;;;;;;;;5073634;28;20449;-68
2023/01/12 01:50:29;;;;;;;59.77;3.10;;;;;;;;;;5073133;28;20445;-69
2023/01/12 01:52:59;;;;;;;60.83;3.37;;;;;;;;;;5073625;28;20463;-69
2023/01/12 01:55:28;;;;;;;61.00;3.80;;;;;;;;;;5073881;28;20451;-69
2023/01/12 01:57:57;;;;;;;62.43;4.20;;;;;;;;;;5073698;28;20447;-68
2023/01/12 02:00:24;;;;;;;63.47;3.37;;;;;;;;;;5073002;28;20443;-69
2023/01/12 02:02:52;;;;;;;60.67;3.60;;;;;;;;;;5073512;28;20835;-69
2023/01/12 02:05:20;;;;;;;59.77;3.50;;;;;;;;;;5073320;28;20447;-68
2023/01/12 02:07:49;;;;;;;64.70;3.80;;;;;;;;;;5073682;28;20455;-69
2023/01/12 02:10:17;;;;;;;63.50;4.63;;;;;;;;;;5072745;28;20995;-69
2023/01/12 02:18:22;;;;;;;64.43;4.33;;;;;;;;;;5053349;28;20431;-69
2023/01/12 02:20:55;;;;;;;58.80;3.47;;;;;;;;;;5052660;28;20456;-68
2023/01/12 02:23:39;;;;;;;59.77;3.70;;;;;;;;;;5053088;28;21107;-69
2023/01/12 02:26:24;;;;;;;60.13;3.77;;;;;;;;;;5052808;28;20479;-69
2023/01/12 02:29:04;;;;;;;60.80;3.63;;;;;;;;;;5052458;28;21101;-69
2023/01/12 02:31:41;;;;;;;61.50;3.73;;;;;;;;;;5052992;28;20448;-68
2023/01/12 02:34:16;;;;;;;62.63;3.40;;;;;;;;;;5052966;28;20448;-68
2023/01/12 02:36:49;;;;;;;59.13;3.30;;;;;;;;;;5052911;28;20466;-69
2023/01/12 02:39:21;;;;;;;62.85;3.47;;;;;;;;;;5052264;28;20455;-68
2023/01/12 02:44:38;;;;;;;59.83;3.10;;;;;;;;;;5052430;28;20415;-69
2023/01/12 02:47:09;;;;;;;60.53;3.30;;;;;;;;;;5052749;28;20952;-69
2023/01/12 02:49:39;;;;;;;60.77;3.73;;;;;;;;;;5051744;28;20486;-69
2023/01/12 02:52:10;;;;;;;62.83;3.50;;;;;;;;;;5052611;28;20843;-69
2023/01/12 02:54:37;;;;;;;63.07;3.50;;;;;;;;;;5052488;28;20948;-69
2023/01/12 02:57:06;;;;;;;59.63;3.43;;;;;;;;;;5052728;28;20455;-69
2023/01/12 02:59:35;;;;;;;60.13;3.80;;;;;;;;;;5063843;28;20820;-69
2023/01/12 03:02:04;;;;;;;61.97;4.13;;;;;;;;;;5072410;28;21012;-69
2023/01/12 03:04:33;;;;;;;61.70;3.63;;;;;;;;;;5072331;28;20458;-69
2023/01/12 03:07:24;;;;;;;62.30;3.27;;;;;;;;;;5072228;28;20455;-68
2023/01/12 03:09:53;;;;;;;59.50;3.43;;;;;;;;;;5071477;28;20483;-69
2023/01/12 03:12:22;;;;;;;61.93;3.90;;;;;;;;;;5072253;28;20475;-69
2023/01/12 03:14:51;;;;;;;59.73;3.87;;;;;;;;;;5072066;28;20451;-69
2023/01/12 03:17:23;;;;;;;63.23;4.20;;;;;;;;;;5072186;28;20447;-69
2023/01/12 03:19:53;;;;;;;65.43;3.47;;;;;;;;;;5071255;28;20789;-69
2023/01/12 03:22:20;;;;;;;58.27;3.03;;;;;;;;;;5072031;28;20472;-68
2023/01/12 03:24:49;;;;;;;60.83;4.60;;;;;;;;;;5072263;28;20470;-68
2023/01/12 03:27:19;;;;;;;59.17;2.93;;;;;;;;;;5072268;28;20458;-69
2023/01/12 03:29:49;;;;;;;59.70;3.93;;;;;;;;;;5071158;28;20483;-69
2023/01/12 03:32:17;;;;;;;61.70;3.50;;;;;;;;;;5071753;28;20471;-69
2023/01/12 03:34:44;;;;;;;64.20;3.30;;;;;;;;;;5072017;28;20466;-68
2023/01/12 03:37:16;;;;;;;60.43;3.53;;;;;;;;;;5071486;28;20447;-68
2023/01/12 03:39:50;;;;;;;63.53;3.40;;;;;;;;;;5071393;28;20888;-69
2023/01/12 03:42:18;;;;;;;59.60;3.53;;;;;;;;;;5072018;28;20470;-69
2023/01/12 03:44:50;;;;;;;63.63;3.40;;;;;;;;;;5071810;28;20457;-69
2023/01/12 03:47:21;;;;;;;62.70;3.47;;;;;;;;;;5071824;28;20443;-68
2023/01/12 03:49:51;;;;;;;66.70;4.30;;;;;;;;;;5070868;28;20478;-68
2023/01/12 03:52:21;;;;;;;60.43;3.73;;;;;;;;;;5071351;28;20471;-69
2023/01/12 03:54:49;;;;;;;63.60;3.90;;;;;;;;;;5071734;28;20920;-69
2023/01/12 03:57:16;;;;;;;66.17;3.97;;;;;;;;;;5071571;28;20447;-69
2023/01/12 03:59:43;;;;;;;60.60;3.30;;;;;;;;;;5070901;28;20932;-68
2023/01/12 04:02:10;;;;;;;61.70;3.80;;;;;;;;;;5071769;28;20486;-69
2023/01/12 04:04:37;;;;;;;61.20;3.37;;;;;;;;;;5071863;28;20447;-69
2023/01/12 04:07:04;;;;;;;61.73;3.50;;;;;;;;;;5071779;28;20451;-69
2023/01/12 04:09:33;;;;;;;60.20;3.40;;;;;;;;;;5070648;28;20483;-69
2023/01/12 04:12:12;;;;;;;59.10;3.50;;;;;;;;;;5071391;28;20471;-69
2023/01/12 04:14:40;;;;;;;62.40;3.77;;;;;;;;;;5071687;28;20447;-68
2023/01/12 04:17:07;;;;;;;61.53;3.50;;;;;;;;;;5071467;28;20970;-68
2023/01/12 04:19:34;;;;;;;63.43;4.13;;;;;;;;;;5070764;28;20450;-69
2023/01/12 04:24:48;;;;;;;63.07;3.90;;;;;;;;;;5071189;28;20450;-69
2023/01/12 04:27:15;;;;;;;70.73;4.10;;;;;;;;;;5071330;28;20482;-69
2023/01/12 04:29:42;;;;;;;63.50;4.03;;;;;;;;;;5070615;28;20824;-69
2023/01/12 04:32:09;;;;;;;61.87;3.80;;;;;;;;;;5071269;28;20482;-69
2023/01/12 04:34:37;;;;;;;65.40;4.30;;;;;;;;;;5071153;28;20447;-69
2023/01/12 04:37:05;;;;;;;61.43;3.70;;;;;;;;;;5071606;28;20871;-69
2023/01/12 04:39:32;;;;;;;60.70;3.87;;;;;;;;;;5070742;28;20443;-69
2023/01/12 04:42:00;;;;;;;65.43;3.53;;;;;;;;;;5071191;28;20467;-69
2023/01/12 04:44:28;;;;;;;62.40;4.57;;;;;;;;;;5070892;28;20455;-69
2023/01/12 04:46:55;;;;;;;62.10;3.77;;;;;;;;;;5071247;28;20443;-69
2023/01/12 04:49:22;;;;;;;61.70;3.60;;;;;;;;;;5072373;28;21034;-69
2023/01/12 04:51:49;;;;;;;59.33;3.40;;;;;;;;;;5074976;28;20471;-69
2023/01/12 04:54:16;;;;;;;70.57;4.10;;;;;;;;;;5074814;28;20451;-68
2023/01/12 04:56:43;;;;;;;59.93;3.00;;;;;;;;;;5074906;28;20447;-69
2023/01/12 04:59:11;;;;;;;59.67;3.50;;;;;;;;;;5074006;28;20447;-69
2023/01/12 05:01:39;;;;;;;61.67;3.67;;;;;;;;;;5075067;28;20828;-69
2023/01/12 05:04:06;;;;;;;59.50;3.67;;;;;;;;;;5074775;28;20451;-68
2023/01/12 05:06:33;;;;;;;63.27;3.80;;;;;;;;;;5074911;28;20481;-69
2023/01/12 05:11:45;;;;;;;64.00;3.60;;;;;;;;;;5074652;28;20447;-69
2023/01/12 05:14:13;;;;;;;64.87;4.00;;;;;;;;;;5074775;28;20526;-69
2023/01/12 05:16:40;;;;;;;72.90;4.60;;;;;;;;;;5074195;28;20943;-69
2023/01/12 05:19:07;;;;;;;66.20;4.13;;;;;;;;;;5073454;28;20451;-68
2023/01/12 05:21:34;;;;;;;60.67;3.23;;;;;;;;;;5074277;28;20447;-69
2023/01/12 05:24:01;;;;;;;60.77;3.70;;;;;;;;;;5074358;28;20954;-69
2023/01/12 05:26:29;;;;;;;65.37;4.37;;;;;;;;;;5074311;28;20456;-69
2023/01/12 05:28:56;;;;;;;67.03;4.30;;;;;;;;;;5073390;28;20462;-69
2023/01/12 05:31:24;;;;;;;61.10;4.40;;;;;;;;;;5074287;28;20448;-69
2023/01/12 05:33:51;;;;;;;64.03;3.87;;;;;;;;;;5074554;28;20454;-69
2023/01/12 05:36:19;;;;;;;71.33;5.10;;;;;;;;;;5074052;28;20455;-69
2023/01/12 05:38:46;;;;;;;61.80;3.80;;;;;;;;;;5073338;28;20440;-69
2023/01/12 05:41:13;;;;;;;64.37;3.67;;;;;;;;;;5073933;28;20447;-69
2023/01/12 05:43:49;;;;;;;65.13;3.97;;;;;;;;;;5074182;28;20538;-69
2023/01/12 05:46:16;;;;;;;67.60;3.70;;;;;;;;;;5074021;28;20530;-68
2023/01/12 05:48:45;;;;;;;64.40;3.83;;;;;;;;;;5073166;28;20449;-69
2023/01/12 05:51:12;;;;;;;66.77;3.50;;;;;;;;;;5073760;28;20493;-69
2023/01/12 05:53:40;;;;;;;61.47;3.70;;;;;;;;;;5065478;28;20481;-69
2023/01/12 05:56:08;;;;;;;64.57;4.17;;;;;;;;;;5071736;28;20487;-69
2023/01/12 05:58:35;;;;;;;59.90;3.40;;;;;;;;;;5061664;28;20466;-69
2023/01/12 06:01:06;;;;;;;63.50;3.73;;;;;;;;;;5072726;28;20454;-69
2023/01/12 06:03:34;;;;;;;67.80;5.47;;;;;;;;;;5073415;28;20467;-69
2023/01/12 06:06:02;;;;;;;64.43;4.07;;;;;;;;;;5073527;28;20479;-69
2023/01/12 06:08:29;;;;;;;62.03;4.30;;;;;;;;;;5073156;28;20447;-68
2023/01/12 06:11:00;;;;;;;62.30;3.73;;;;;;;;;;5073083;28;21011;-68
2023/01/12 06:16:12;;;;;;;61.60;3.43;;;;;;;;;;5073412;28;20505;-69
2023/01/12 06:18:40;;;;;;;64.07;4.10;;;;;;;;;;5072481;28;20444;-68
2023/01/12 06:21:09;;;;;;;62.70;4.03;;;;;;;;;;5073151;28;20439;-69
2023/01/12 06:23:36;;;;;;;61.33;3.80;;;;;;;;;;5073227;28;20471;-68
2023/01/12 06:26:04;;;;;;;61.60;3.40;;;;;;;;;;5073206;28;20459;-69
2023/01/12 06:28:31;;;;;;;60.57;3.23;;;;;;;;;;5073150;28;20461;-69
2023/01/12 06:30:58;;;;;;;63.97;3.80;;;;;;;;;;5072629;28;20479;-69
2023/01/12 06:33:26;;;;;;;60.97;4.00;;;;;;;;;;5072719;28;20473;-69
2023/01/12 06:35:53;;;;;;;64.63;4.10;;;;;;;;;;5073036;28;20455;-69
2023/01/12 06:38:22;;;;;;;61.60;3.90;;;;;;;;;;5072501;28;20451;-69
2023/01/12 06:40:49;;;;;;;65.70;3.53;;;;;;;;;;5072107;28;20447;-69
2023/01/12 06:43:16;;;;;;;63.00;3.83;;;;;;;;;;5072756;28;20490;-69
2023/01/12 06:45:43;;;;;;;62.97;4.13;;;;;;;;;;5072891;28;20516;-69
2023/01/12 06:48:10;;;;;;;63.07;3.80;;;;;;;;;;5072520;28;20447;-69
2023/01/12 06:50:38;;;;;;;60.63;3.67;;;;;;;;;;5071931;28;21011;-69
2023/01/12 06:53:06;;;;;;;60.13;3.27;;;;;;;;;;5072618;28;20495;-69
2023/01/12 06:55:35;;;;;;;66.87;4.00;;;;;;;;;;5072628;28;20871;-69
2023/01/12 06:58:03;;;;;;;63.50;3.73;;;;;;;;;;5072278;28;20948;-69
2023/01/12 07:00:30;;;;;;;64.80;4.00;;;;;;;;;;5071611;28;20454;-69
2023/01/12 07:02:57;;;;;;;65.10;4.00;;;;;;;;;;5072401;28;20828;-69
2023/01/12 07:05:25;;;;;;;64.57;4.20;;;;;;;;;;5072291;28;20936;-69
2023/01/12 07:07:57;;;;;;;70.73;4.10;;;;;;;;;;5072563;28;20447;-68
2023/01/12 07:10:24;;;;;;;66.67;4.30;;;;;;;;;;5071127;28;20999;-68
2023/01/12 07:12:52;;;;;;;65.70;4.07;;;;;;;;;;5072241;28;20467;-69
2023/01/12 07:15:20;;;;;;;65.47;4.33;;;;;;;;;;5072009;28;20454;-68
2023/01/12 07:17:47;;;;;;;61.03;3.73;;;;;;;;;;5072297;28;20439;-68
2023/01/12 07:20:14;;;;;;;65.53;3.73;;;;;;;;;;5071274;28;20448;-69
2023/01/12 07:22:41;;;;;;;60.23;3.13;;;;;;;;;;5072078;28;20463;-69
2023/01/12 07:25:08;;;;;;;67.23;4.77;;;;;;;;;;5072015;28;20463;-69
2023/01/12 07:27:35;;;;;;;65.33;4.03;;;;;;;;;;5071845;28;20947;-69
2023/01/12 07:30:04;;;;;;;61.03;3.00;;;;;;;;;;5071342;28;20510;-69
2023/01/12 07:32:31;;;;;;;61.80;3.70;;;;;;;;;;5072055;28;20838;-69
2023/01/12 07:34:58;;;;;;;59.00;3.30;;;;;;;;;;5072093;28;20452;-69
2023/01/12 07:37:25;;;;;;;61.20;3.50;;;;;;;;;;5071971;28;20443;-69
2023/01/12 07:39:52;;;;;;;63.80;3.47;;;;;;;;;;5071121;28;20954;-70
2023/01/12 07:42:23;;;;;;;63.13;4.53;;;;;;;;;;5071676;28;20478;-70
2023/01/12 07:44:50;;;;;;;64.17;3.83;;;;;;;;;;5072183;28;20454;-70
2023/01/12 07:47:18;;;;;;;65.57;3.47;;;;;;;;;;5072047;28;20451;-70
2023/01/12 07:49:45;;;;;;;62.63;3.53;;;;;;;;;;5071003;28;20799;-70
2023/01/12 07:52:13;;;;;;;63.10;3.80;;;;;;;;;;5071629;28;20479;-70
2023/01/12 07:54:40;;;;;;;63.20;2.80;;;;;;;;;;5071678;28;20443;-70
2023/01/12 07:57:08;;;;;;;59.70;2.90;;;;;;;;;;5071758;28;20449;-70
2023/01/12 07:59:35;;;;;;;65.13;3.70;;;;;;;;;;5071026;28;20459;-70
2023/01/12 08:02:02;;;;;;;59.03;3.43;;;;;;;;;;5071649;28;20465;-70
2023/01/12 08:04:30;;;;;;;69.23;4.50;;;;;;;;;;5071783;28;20817;-70
2023/01/12 08:06:57;;;;;;;64.33;4.17;;;;;;;;;;5072147;28;20454;-70
2023/01/12 08:09:26;;;;;;;64.37;3.50;;;;;;;;;;5070782;28;20990;-69
2023/01/12 08:11:53;;;;;;;62.53;3.77;;;;;;;;;;5071473;28;20510;-70
2023/01/12 08:14:24;;;;;;;60.77;3.23;;;;;;;;;;5071596;28;20450;-70
2023/01/12 08:16:52;;;;;;;65.53;3.73;;;;;;;;;;5071768;28;20450;-70
2023/01/12 08:19:21;;;;;;;60.53;3.27;;;;;;;;;;5070720;28;20455;-69
2023/01/12 08:21:52;;;;;;;61.40;3.70;;;;;;;;;;5071499;28;20467;-69
2023/01/12 08:24:22;;;;;;;59.60;3.33;;;;;;;;;;5063466;28;20451;-69
2023/01/12 08:26:51;;;;;;;62.20;3.30;;;;;;;;;;5064360;28;20447;-69
2023/01/12 08:29:28;;;;;;;62.50;3.30;;;;;;;;;;5062350;28;20563;-69
2023/01/12 08:31:56;;;;;;;62.67;3.30;;;;;;;;;;5062784;28;21004;-69
2023/01/12 08:34:23;;;;;;;61.80;3.10;;;;;;;;;;5071957;28;20443;-69
2023/01/12 08:36:52;;;;;;;60.70;3.80;;;;;;;;;;5062477;28;20455;-69
2023/01/12 08:39:19;;;;;;;61.20;3.27;;;;;;;;;;5063699;28;20451;-69
2023/01/12 08:41:46;;;;;;;59.07;2.97;;;;;;;;;;5064255;28;20460;-69
2023/01/12 08:44:14;;;;;;;62.00;3.77;;;;;;;;;;5062671;28;20881;-69
2023/01/12 08:46:47;;;;;;;62.53;3.40;;;;;;;;;;5063923;28;20943;-69
2023/01/12 08:49:15;;;;;;;59.90;3.37;;;;;;;;;;5067735;28;20451;-69
2023/01/12 08:51:42;;;;;;;60.10;3.83;;;;;;;;;;5074479;28;20491;-69
2023/01/12 08:54:11;;;;;;;58.73;3.17;;;;;;;;;;5074942;28;20447;-70
2023/01/12 08:56:38;;;;;;;59.90;3.20;;;;;;;;;;5074735;28;20962;-69
2023/01/12 08:59:05;;;;;;;58.60;3.07;;;;;;;;;;5073887;28;20451;-70
2023/01/12 09:01:33;;;;;;;60.90;3.67;;;;;;;;;;5074721;28;20439;-69
2023/01/12 09:04:00;;;;;;;65.10;3.87;;;;;;;;;;5074828;28;20823;-69
2023/01/12 09:06:29;;;;;;;63.20;3.43;;;;;;;;;;5074746;28;20815;-69
2023/01/12 09:08:57;;;;;;;59.40;3.10;;;;;;;;;;5073948;28;20447;-69
2023/01/12 09:11:26;;;;;;;60.27;3.00;;;;;;;;;;5074269;28;20490;-70
2023/01/12 09:13:54;;;;;;;60.40;3.20;;;;;;;;;;5074391;28;20458;-69
2023/01/12 09:16:22;;;;;;;58.90;3.23;;;;;;;;;;5074688;28;20447;-69
2023/01/12 09:18:49;;;;;;;66.57;3.70;;;;;;;;;;5073786;28;20883;-69
2023/01/12 09:21:17;;;;;;;63.63;3.90;;;;;;;;;;5074342;28;20449;-69
2023/01/12 09:23:44;;;;;;;63.30;3.60;;;;;;;;;;5074342;28;20462;-69
2023/01/12 09:26:12;;;;;;;61.57;3.70;;;;;;;;;;5074107;28;20469;-70
2023/01/12 09:28:41;;;;;;;63.53;4.00;;;;;;;;;;5073325;28;21061;-67
2023/01/12 09:31:10;;;;;;;61.30;3.13;;;;;;;;;;5074221;28;20490;-70
2023/01/12 09:33:38;;;;;;;61.60;3.40;;;;;;;;;;5068777;28;20478;-69
2023/01/12 09:36:06;;;;;;;66.43;3.87;;;;;;;;;;5052968;28;20448;-70
2023/01/12 09:38:35;;;;;;;58.90;3.40;;;;;;;;;;5053856;28;20831;-68
2023/01/12 09:41:03;;;;;;;61.40;3.20;;;;;;;;;;5053812;28;20444;-70
2023/01/12 09:49:11;;;;;;;63.77;3.50;;;;;;;;;;5053023;28;20428;-70
2023/01/12 09:51:42;;;;;;;63.37;3.57;;;;;;;;;;5053898;28;20537;-69
2023/01/12 09:54:10;;;;;;;63.70;3.43;;;;;;;;;;5053588;28;20948;-70
2023/01/12 09:56:39;;;;;;;67.60;4.30;;;;;;;;;;5053760;28;20444;-70
2023/01/12 09:59:15;;;;;;;61.30;3.50;;;;;;;;;;5052898;28;20971;-69
2023/01/12 10:01:43;;;;;;;63.57;3.83;;;;;;;;;;5053581;28;20468;-69
2023/01/12 10:04:10;;;;;;;65.30;3.53;;;;;;;;;;5053696;28;20556;-69
2023/01/12 10:06:37;;;;;;;60.40;3.30;;;;;;;;;;5053618;28;20454;-69
2023/01/12 10:09:05;;;;;;;61.50;3.17;;;;;;;;;;5052586;28;20448;-69
2023/01/12 10:11:35;;;;;;;63.50;4.50;;;;;;;;;;5053486;28;20480;-69
2023/01/12 10:14:18;;;;;;;59.40;3.43;;;;;;;;;;5053521;28;20450;-70
2023/01/12 10:16:51;;;;;;;64.00;4.53;;;;;;;;;;5053611;28;20459;-70
2023/01/12 10:19:22;;;;;;;70.23;8.50;;;;;;;;;;5052700;28;20452;-69
2023/01/12 10:21:51;;;;;;;60.90;3.67;;;;;;;;;;5053240;28;20842;-69
2023/01/12 10:24:20;;;;;;;64.10;3.30;;;;;;;;;;5053002;28;20990;-69
2023/01/12 10:26:49;;;;;;;60.70;3.80;;;;;;;;;;5052955;28;20539;-69
2023/01/12 10:29:16;;;;;;;60.77;3.20;;;;;;;;;;5052488;28;20598;-70
2023/01/12 10:31:43;;;;;;;62.27;3.27;;;;;;;;;;5053027;28;20496;-70
2023/01/12 10:34:12;;;;;;;64.43;3.70;;;;;;;;;;5052961;28;20452;-70
2023/01/12 10:36:42;;;;;;;61.40;4.03;;;;;;;;;;5052995;28;20445;-70
2023/01/12 10:39:27;;;;;;;59.90;3.20;;;;;;;;;;5051917;28;20455;-70
2023/01/12 10:42:09;;;;;;;60.57;3.07;;;;;;;;;;5053028;28;20474;-70
2023/01/12 10:44:36;;;;;;;60.73;3.73;;;;;;;;;;5052937;28;20459;-70
2023/01/12 10:47:10;;;;;;;64.47;4.00;;;;;;;;;;5052397;28;20448;-70
2023/01/12 10:49:38;;;;;;;61.23;3.30;;;;;;;;;;5051778;28;20474;-71
2023/01/12 10:52:09;;;;;;;64.07;4.40;;;;;;;;;;5052458;28;20492;-70
2023/01/12 10:54:40;;;;;;;58.27;2.77;;;;;;;;;;5053024;28;20448;-67
2023/01/12 10:57:13;;;;;;;60.80;3.33;;;;;;;;;;5060363;28;20444;-67
2023/01/12 10:59:41;;;;;;;61.03;3.20;;;;;;;;;;5065588;28;20451;-69
2023/01/12 11:02:15;;;;;;;63.67;4.40;;;;;;;;;;5071297;28;20467;-69
2023/01/12 11:04:44;;;;;;;61.57;3.20;;;;;;;;;;5071709;28;20842;-68
2023/01/12 11:07:12;;;;;;;59.47;2.67;;;;;;;;;;5071622;28;20459;-69
2023/01/12 11:09:40;;;;;;;62.40;3.27;;;;;;;;;;5070726;28;20534;-69
2023/01/12 11:12:19;;;;;;;62.40;3.60;;;;;;;;;;5071429;28;20491;-68
2023/01/12 11:14:57;;;;;;;57.80;2.90;;;;;;;;;;5072248;28;20455;-68
2023/01/12 11:17:32;;;;;;;59.70;3.53;;;;;;;;;;5072128;28;20454;-69
2023/01/12 11:20:01;;;;;;;59.40;2.97;;;;;;;;;;5071357;28;20469;-68
2023/01/12 11:22:31;;;;;;;57.90;3.00;;;;;;;;;;5072001;28;20967;-68
2023/01/12 11:25:01;;;;;;;60.40;3.23;;;;;;;;;;5072031;28;20956;-68
2023/01/12 11:27:30;;;;;;;58.67;3.30;;;;;;;;;;5072262;28;20454;-68
2023/01/12 11:29:59;;;;;;;64.03;3.20;;;;;;;;;;5071456;28;20447;-69
2023/01/12 11:32:31;;;;;;;59.10;3.23;;;;;;;;;;5071976;28;20485;-68
2023/01/12 11:34:59;;;;;;;58.13;2.83;;;;;;;;;;5071979;28;20447;-69
2023/01/12 11:37:28;;;;;;;58.90;2.60;;;;;;;;;;5071816;28;20835;-69
2023/01/12 11:40:01;;;;;;;58.80;3.20;;;;;;;;;;5070955;28;20449;-68
2023/01/12 11:45:18;;;;;;;58.47;2.70;;;;;;;;;;5072048;28;20418;-69
2023/01/12 11:47:48;;;;;;;60.47;2.67;;;;;;;;;;5072000;28;20447;-68
2023/01/12 11:50:17;;;;;;;58.17;2.63;;;;;;;;;;5070928;28;20459;-69
2023/01/12 11:52:46;;;;;;;60.57;2.93;;;;;;;;;;5071718;28;20490;-68
2023/01/12 11:55:14;;;;;;;60.77;2.80;;;;;;;;;;5071585;28;20951;-69
2023/01/12 11:57:53;;;;;;;58.20;3.00;;;;;;;;;;5071363;28;20504;-68
2023/01/12 12:00:28;;;;;;;58.27;2.60;;;;;;;;;;5070982;28;20929;-69
2023/01/12 12:03:00;;;;;;;57.80;2.60;;;;;;;;;;5072046;28;20489;-69
2023/01/12 12:05:30;;;;;;;58.20;2.57;;;;;;;;;;5071747;28;20443;-69
2023/01/12 12:08:11;;;;;;;57.33;2.47;;;;;;;;;;5071514;28;20458;-68
2023/01/12 12:10:43;;;;;;;58.47;2.80;;;;;;;;;;5070977;28;20461;-69
2023/01/12 12:13:26;;;;;;;59.27;2.70;;;;;;;;;;5071293;28;20505;-68
2023/01/12 12:15:58;;;;;;;58.67;2.50;;;;;;;;;;5071700;28;20470;-68
2023/01/12 12:18:32;;;;;;;60.93;3.13;;;;;;;;;;5071489;28;20461;-69
2023/01/12 12:21:07;;;;;;;58.57;2.70;;;;;;;;;;5071508;28;20457;-69
2023/01/12 12:23:40;;;;;;;57.57;2.50;;;;;;;;;;5071251;28;21087;-68
2023/01/12 12:26:12;;;;;;;59.43;2.63;;;;;;;;;;5071453;28;20516;-69
2023/01/12 12:28:54;;;;;;;58.00;2.67;;;;;;;;;;5070725;28;20948;-69
2023/01/12 12:31:25;;;;;;;58.87;2.60;;;;;;;;;;5068862;28;20465;-69
2023/01/12 12:34:04;;;;;;;59.40;2.60;;;;;;;;;;5071296;28;20827;-68
2023/01/12 12:36:35;;;;;;;57.50;2.43;;;;;;;;;;5071451;28;20451;-68
2023/01/12 12:39:16;;;;;;;57.43;2.63;;;;;;;;;;5070832;28;20496;-68
2023/01/12 12:47:32;;;;;;;58.20;2.60;;;;;;;;;;5071362;28;20593;-68
2023/01/12 12:50:00;;;;;;;58.40;2.67;;;;;;;;;;5070030;28;20441;-69
2023/01/12 12:52:29;;;;;;;59.97;2.70;;;;;;;;;;5070948;28;20494;-69
2023/01/12 12:54:58;;;;;;;63.67;2.73;;;;;;;;;;5070817;28;20509;-68
2023/01/12 12:57:25;;;;;;;61.30;3.30;;;;;;;;;;5071186;28;20455;-68
2023/01/12 12:59:54;;;;;;;58.67;3.10;;;;;;;;;;5070264;28;20462;-68
2023/01/12 13:02:34;;;;;;;59.70;2.50;;;;;;;;;;5070941;28;20467;-68
2023/01/12 13:05:03;;;;;;;65.90;2.77;;;;;;;;;;5070557;28;20831;-68
2023/01/12 13:07:30;;;;;;;59.87;2.63;;;;;;;;;;5071069;28;20447;-68
2023/01/12 13:10:10;;;;;;;58.07;2.60;;;;;;;;;;5071725;28;20804;-68
2023/01/12 13:12:38;;;;;;;58.17;2.67;;;;;;;;;;5074522;28;20509;-68
2023/01/12 13:15:28;;;;;;;58.67;2.50;;;;;;;;;;5074477;28;20934;-68
2023/01/12 13:17:55;;;;;;;57.73;2.60;;;;;;;;;;5070450;28;20970;-68
2023/01/12 13:20:40;;;;;;;57.37;2.53;;;;;;;;;;5073918;28;20539;-68
2023/01/12 13:23:22;;;;;;;58.33;2.20;;;;;;;;;;5064275;28;20482;-69
2023/01/12 13:25:56;;;;;;;59.00;2.80;;;;;;;;;;5074097;28;20447;-68
2023/01/12 13:28:23;;;;;;;58.23;2.47;;;;;;;;;;5074487;28;20440;-68
2023/01/12 13:30:51;;;;;;;59.70;2.80;;;;;;;;;;5073720;28;20873;-68
2023/01/12 13:33:26;;;;;;;59.10;2.60;;;;;;;;;;5074055;28;20874;-68
2023/01/12 13:36:03;;;;;;;59.50;2.70;;;;;;;;;;5074037;28;20451;-68
2023/01/12 13:38:38;;;;;;;58.53;2.70;;;;;;;;;;5073830;28;20447;-69
2023/01/12 13:43:13;;;;;;;57.70;2.90;;;;;;;;;;5074266;28;20447;-68
2023/01/12 13:44:01;;;;;;;60.00;2.70;;;;;;;;;;5073849;28;20448;-69
2023/01/12 13:46:29;;;;;;;57.57;2.53;;;;;;;;;;5073950;28;20447;-69
2023/01/12 13:48:57;;;;;;;58.33;2.53;;;;;;;;;;5073014;28;20486;-69
2023/01/12 13:51:26;;;;;;;58.87;2.80;;;;;;;;;;5073618;28;20500;-69
2023/01/12 13:53:59;;;;;;;58.77;2.87;;;;;;;;;;5073852;28;20443;-69
2023/01/12 13:56:28;;;;;;;62.00;2.73;;;;;;;;;;5073763;28;20457;-68
2023/01/12 13:58:59;;;;;;;58.37;2.50;;;;;;;;;;5072863;28;20455;-69
2023/01/12 14:01:27;;;;;;;58.87;3.00;;;;;;;;;;5073571;28;20874;-69
2023/01/12 14:04:00;;;;;;;58.97;2.73;;;;;;;;;;5073748;28;20447;-68
2023/01/12 14:06:31;;;;;;;58.27;2.87;;;;;;;;;;5073545;28;20487;-68
2023/01/12 14:09:02;;;;;;;59.30;2.90;;;;;;;;;;5072698;28;20455;-68
2023/01/12 14:11:41;;;;;;;60.57;2.97;;;;;;;;;;5073448;28;20455;-68
2023/01/12 14:19:52;;;;;;;58.07;2.70;;;;;;;;;;5064983;28;20463;-68
2023/01/12 14:22:20;;;;;;;59.17;2.30;;;;;;;;;;5072522;28;20469;-68
2023/01/12 14:24:47;;;;;;;59.20;2.57;;;;;;;;;;5073476;28;20461;-69
2023/01/12 14:27:21;;;;;;;58.80;2.67;;;;;;;;;;5073382;28;20815;-68
2023/01/12 14:29:48;;;;;;;58.37;2.70;;;;;;;;;;5072430;28;20508;-68
2023/01/12 14:32:15;;;;;;;57.00;2.30;;;;;;;;;;5072856;28;20491;-68
2023/01/12 14:34:50;;;;;;;58.37;2.50;;;;;;;;;;5073359;28;20954;-68
2023/01/12 14:37:25;;;;;;;57.60;2.40;;;;;;;;;;5073219;28;21009;-68
2023/01/12 14:39:53;;;;;;;57.80;2.57;;;;;;;;;;5072309;28;20481;-68
2023/01/12 14:48:19;;;;;;;58.60;2.73;;;;;;;;;;5072654;28;20419;-68
2023/01/12 14:50:59;;;;;;;58.37;2.70;;;;;;;;;;5072038;28;20453;-68
2023/01/12 14:53:31;;;;;;;58.73;2.70;;;;;;;;;;5072443;28;20494;-68
2023/01/12 14:56:06;;;;;;;57.67;2.63;;;;;;;;;;5072797;28;20443;-68
2023/01/12 14:58:35;;;;;;;57.87;2.60;;;;;;;;;;5072193;28;20453;-68
2023/01/12 15:01:02;;;;;;;57.70;2.40;;;;;;;;;;5072539;28;20473;-68
2023/01/12 15:03:29;;;;;;;58.83;2.70;;;;;;;;;;5072263;28;20471;-68
2023/01/12 15:05:58;;;;;;;58.17;2.30;;;;;;;;;;5072353;28;20827;-68
2023/01/12 15:08:26;;;;;;;60.47;2.43;;;;;;;;;;5072399;28;20452;-68
2023/01/12 15:10:58;;;;;;;58.10;3.00;;;;;;;;;;5071968;28;20851;-69
2023/01/12 15:13:27;;;;;;;60.00;2.60;;;;;;;;;;5072267;28;20486;-68
2023/01/12 15:27:02;;;;;;;59.17;2.70;;;;;;;;;;5072112;28;20423;-68
2023/01/12 15:29:29;;;;;;;58.20;2.77;;;;;;;;;;5071202;28;21005;-69
2023/01/12 15:31:58;;;;;;;58.47;2.70;;;;;;;;;;5071924;28;20471;-68
2023/01/12 15:34:25;;;;;;;58.33;2.50;;;;;;;;;;5071045;28;20455;-68
2023/01/12 15:36:52;;;;;;;61.90;2.80;;;;;;;;;;5072040;28;20454;-69
2023/01/12 15:39:19;;;;;;;59.27;2.40;;;;;;;;;;5071038;28;20547;-68
2023/01/12 15:44:31;;;;;;;58.47;2.70;;;;;;;;;;5072012;28;20427;-68
2023/01/12 15:46:59;;;;;;;57.50;2.50;;;;;;;;;;5072008;28;20473;-68